Sunday, May 27, 2018, 1:48 PM GMT
Back to Local

CWIT, Saint Clothilde Automated Reporting Station

Location: , , Canada Lat: 45.167
Local Time: 1:48 PM GMT (13:48 GMT) Lon: -73.683
Time Zone: GMT Elev: 170 ft

Show me the last for .
Show Coded

Time T Td Feel RH Dir Speed Gust Alt SLP Vis Weather Sky Remarks
2018-05-27 13:00 65 56 - 72 140° 10 - - 30.01 0 Peak wind: 19 mph (17 kts) from 130° at 22 min
2018-05-27 12:00 63 55 - 76 130° 9 - - 30.01 0 None
2018-05-27 11:00 56 49 - 77 100° 5 - - 29.99 0 None
2018-05-27 10:00 53 46 - 75 80° 3 - - 29.98 0 None
2018-05-27 09:00 53 44 - 72 60° 3 - - 29.98 0 None
2018-05-27 08:00 53 44 - 71 70° 3 - - 29.97 0 None
2018-05-27 07:00 54 45 - 71 70° 2 - - 29.97 0 None
2018-05-27 06:00 55 45 - 69 50° 2 - - 29.97 0 None
2018-05-27 05:00 56 46 - 68 80° 3 - - 29.98 0 None
2018-05-27 04:00 53 49 - 88 60° 2 - - 29.98 0 None
2018-05-27 03:00 57 49 - 75 70° 3 - - 29.96 0 None
2018-05-27 02:00 59 53 - 79 50° 2 - - 29.96 0 None
2018-05-27 01:00 60 59 - 95 - Calm - - 29.93 0 None
2018-05-27 00:00 64 60 - 88 - Calm - - 29.91 0 None
2018-05-26 23:00 67 59 - 74 170° 1 - - 29.89 0 None
2018-05-26 22:00 70 54 - 57 90° 5 - - 29.88 0 None
2018-05-26 21:00 69 54 - 58 80° 5 - - 29.87 0 None
2018-05-26 20:00 68 56 - 67 90° 2 - - 29.86 0 1-hr Precip Total: 0.01"
2018-05-26 19:00 67 56 - 70 60° 3 - - 29.85 0 None
2018-05-26 18:00 65 58 - 76 80° 2 - - 29.83 0 None
2018-05-26 17:00 63 61 - 93 360° 2 - - 29.82 0 None
2018-05-26 16:00 63 60 - 92 270° 2 - - 29.80 0 1-hr Precip Total: 0.02"
2018-05-26 15:00 63 60 - 90 310° 3 - - 29.78 0 None
2018-05-26 14:00 62 60 - 92 30° 2 - - 29.75 0 1-hr Precip Total: 0.04"

Support USWX by starting your Amazon purchase here.